sensor_id;sensor_type;location;lat;lon;timestamp;temperature;humidity
8850;DHT22;5638;50.860;4.698;2022-07-05T00:00:44;18.90;99.90
8850;DHT22;5638;50.860;4.698;2022-07-05T00:03:10;18.90;99.90
8850;DHT22;5638;50.860;4.698;2022-07-05T00:05:36;18.90;99.90
8850;DHT22;5638;50.860;4.698;2022-07-05T00:08:04;18.90;99.90
8850;DHT22;5638;50.860;4.698;2022-07-05T00:10:32;18.70;99.90
8850;DHT22;5638;50.860;4.698;2022-07-05T00:12:58;18.70;99.90
8850;DHT22;5638;50.860;4.698;2022-07-05T00:15:24;18.70;99.90
8850;DHT22;5638;50.860;4.698;2022-07-05T00:17:50;18.70;99.90
8850;DHT22;5638;50.860;4.698;2022-07-05T00:20:16;18.70;99.90
8850;DHT22;5638;50.860;4.698;2022-07-05T00:22:42;18.70;99.90
8850;DHT22;5638;50.860;4.698;2022-07-05T00:25:08;18.70;99.90
8850;DHT22;5638;50.860;4.698;2022-07-05T00:27:34;18.60;99.90
8850;DHT22;5638;50.860;4.698;2022-07-05T00:30:00;18.60;99.90
8850;DHT22;5638;50.860;4.698;2022-07-05T00:32:26;18.40;99.90
8850;DHT22;5638;50.860;4.698;2022-07-05T00:34:52;18.40;99.90
8850;DHT22;5638;50.860;4.698;2022-07-05T00:37:18;18.30;99.90
8850;DHT22;5638;50.860;4.698;2022-07-05T00:39:44;18.30;99.90
8850;DHT22;5638;50.860;4.698;2022-07-05T00:42:09;18.20;99.90
8850;DHT22;5638;50.860;4.698;2022-07-05T00:44:37;18.20;99.90
8850;DHT22;5638;50.860;4.698;2022-07-05T00:47:05;18.10;99.90
8850;DHT22;5638;50.860;4.698;2022-07-05T00:49:32;18.10;99.90
8850;DHT22;5638;50.860;4.698;2022-07-05T00:51:59;18.10;99.90
8850;DHT22;5638;50.860;4.698;2022-07-05T00:54:30;18.20;99.90
8850;DHT22;5638;50.860;4.698;2022-07-05T00:56:58;18.20;99.90
8850;DHT22;5638;50.860;4.698;2022-07-05T00:59:25;18.10;99.90
8850;DHT22;5638;50.860;4.698;2022-07-05T01:01:52;18.10;99.90
8850;DHT22;5638;50.860;4.698;2022-07-05T01:04:19;18.10;99.90
8850;DHT22;5638;50.860;4.698;2022-07-05T01:06:47;18.00;99.90
8850;DHT22;5638;50.860;4.698;2022-07-05T01:09:16;18.00;99.90
8850;DHT22;5638;50.860;4.698;2022-07-05T01:11:44;18.00;99.90
8850;DHT22;5638;50.860;4.698;2022-07-05T01:14:13;18.00;99.90
8850;DHT22;5638;50.860;4.698;2022-07-05T01:16:42;18.00;99.90
8850;DHT22;5638;50.860;4.698;2022-07-05T01:19:10;17.90;99.90
8850;DHT22;5638;50.860;4.698;2022-07-05T01:21:42;17.90;99.90
8850;DHT22;5638;50.860;4.698;2022-07-05T01:24:11;17.70;99.90
8850;DHT22;5638;50.860;4.698;2022-07-05T01:26:40;17.70;99.90
8850;DHT22;5638;50.860;4.698;2022-07-05T01:29:07;17.60;99.90
8850;DHT22;5638;50.860;4.698;2022-07-05T01:31:38;17.60;99.90
8850;DHT22;5638;50.860;4.698;2022-07-05T01:34:06;17.60;99.90
8850;DHT22;5638;50.860;4.698;2022-07-05T01:36:35;17.60;99.90
8850;DHT22;5638;50.860;4.698;2022-07-05T01:39:03;17.60;99.90
8850;DHT22;5638;50.860;4.698;2022-07-05T01:41:30;17.70;99.90
8850;DHT22;5638;50.860;4.698;2022-07-05T01:43:56;17.70;99.90
8850;DHT22;5638;50.860;4.698;2022-07-05T01:46:24;17.70;99.90
8850;DHT22;5638;50.860;4.698;2022-07-05T01:48:56;17.50;99.90
8850;DHT22;5638;50.860;4.698;2022-07-05T01:51:30;17.30;99.90
8850;DHT22;5638;50.860;4.698;2022-07-05T01:54:00;17.30;99.90
8850;DHT22;5638;50.860;4.698;2022-07-05T01:56:29;17.30;99.90
8850;DHT22;5638;50.860;4.698;2022-07-05T01:58:56;17.10;99.90
8850;DHT22;5638;50.860;4.698;2022-07-05T02:01:38;16.90;99.90
8850;DHT22;5638;50.860;4.698;2022-07-05T02:04:06;17.00;99.90
8850;DHT22;5638;50.860;4.698;2022-07-05T02:06:34;16.90;99.90
8850;DHT22;5638;50.860;4.698;2022-07-05T02:09:02;17.00;99.90
8850;DHT22;5638;50.860;4.698;2022-07-05T02:11:30;17.00;99.90
8850;DHT22;5638;50.860;4.698;2022-07-05T02:13:57;17.00;99.90
8850;DHT22;5638;50.860;4.698;2022-07-05T02:16:25;17.00;99.90
8850;DHT22;5638;50.860;4.698;2022-07-05T02:18:52;17.10;99.90
8850;DHT22;5638;50.860;4.698;2022-07-05T02:21:18;17.10;99.90
8850;DHT22;5638;50.860;4.698;2022-07-05T02:23:44;17.10;99.90
8850;DHT22;5638;50.860;4.698;2022-07-05T02:26:10;16.90;99.90
8850;DHT22;5638;50.860;4.698;2022-07-05T02:28:37;16.90;99.90
8850;DHT22;5638;50.860;4.698;2022-07-05T02:31:03;16.80;99.90
8850;DHT22;5638;50.860;4.698;2022-07-05T02:33:29;16.70;99.90
8850;DHT22;5638;50.860;4.698;2022-07-05T02:35:54;16.70;99.90
8850;DHT22;5638;50.860;4.698;2022-07-05T02:38:20;16.80;99.90
8850;DHT22;5638;50.860;4.698;2022-07-05T02:40:46;16.90;99.90
8850;DHT22;5638;50.860;4.698;2022-07-05T02:43:12;16.90;99.90
8850;DHT22;5638;50.860;4.698;2022-07-05T02:45:38;16.70;99.90
8850;DHT22;5638;50.860;4.698;2022-07-05T02:48:03;16.70;99.90
8850;DHT22;5638;50.860;4.698;2022-07-05T02:50:30;16.60;99.90
8850;DHT22;5638;50.860;4.698;2022-07-05T02:52:55;16.70;99.90
8850;DHT22;5638;50.860;4.698;2022-07-05T02:55:21;16.60;99.90
8850;DHT22;5638;50.860;4.698;2022-07-05T02:57:47;16.60;99.90
8850;DHT22;5638;50.860;4.698;2022-07-05T03:00:14;16.60;99.90
8850;DHT22;5638;50.860;4.698;2022-07-05T03:02:40;16.50;99.90
8850;DHT22;5638;50.860;4.698;2022-07-05T03:05:06;16.50;99.90
8850;DHT22;5638;50.860;4.698;2022-07-05T03:07:32;16.60;99.90
8850;DHT22;5638;50.860;4.698;2022-07-05T03:09:58;16.60;99.90
8850;DHT22;5638;50.860;4.698;2022-07-05T03:12:23;16.60;99.90
8850;DHT22;5638;50.860;4.698;2022-07-05T03:14:49;16.50;99.90
8850;DHT22;5638;50.860;4.698;2022-07-05T03:17:15;16.40;99.90
8850;DHT22;5638;50.860;4.698;2022-07-05T03:19:41;16.50;99.90
8850;DHT22;5638;50.860;4.698;2022-07-05T03:22:06;16.40;99.90
8850;DHT22;5638;50.860;4.698;2022-07-05T03:24:32;16.30;99.90
8850;DHT22;5638;50.860;4.698;2022-07-05T03:26:58;16.30;99.90
8850;DHT22;5638;50.860;4.698;2022-07-05T03:29:24;16.40;99.90
8850;DHT22;5638;50.860;4.698;2022-07-05T03:31:50;16.50;99.90
8850;DHT22;5638;50.860;4.698;2022-07-05T03:34:15;16.50;99.90
8850;DHT22;5638;50.860;4.698;2022-07-05T03:36:41;16.50;99.90
8850;DHT22;5638;50.860;4.698;2022-07-05T03:39:07;16.50;99.90
8850;DHT22;5638;50.860;4.698;2022-07-05T03:41:33;16.40;99.90
8850;DHT22;5638;50.860;4.698;2022-07-05T03:43:59;16.30;99.90
8850;DHT22;5638;50.860;4.698;2022-07-05T03:46:24;16.30;99.90
8850;DHT22;5638;50.860;4.698;2022-07-05T03:48:50;16.20;99.90
8850;DHT22;5638;50.860;4.698;2022-07-05T03:51:17;16.20;99.90
8850;DHT22;5638;50.860;4.698;2022-07-05T03:53:43;16.20;99.90
8850;DHT22;5638;50.860;4.698;2022-07-05T03:56:09;16.30;99.90
8850;DHT22;5638;50.860;4.698;2022-07-05T03:58:35;16.20;99.90
8850;DHT22;5638;50.860;4.698;2022-07-05T04:01:00;16.00;99.90
8850;DHT22;5638;50.860;4.698;2022-07-05T04:03:26;16.00;99.90
8850;DHT22;5638;50.860;4.698;2022-07-05T04:05:52;16.00;99.90
8850;DHT22;5638;50.860;4.698;2022-07-05T04:08:18;16.10;99.90
8850;DHT22;5638;50.860;4.698;2022-07-05T04:10:44;16.10;99.90
8850;DHT22;5638;50.860;4.698;2022-07-05T04:13:09;16.00;99.90
8850;DHT22;5638;50.860;4.698;2022-07-05T04:15:35;16.10;99.90
8850;DHT22;5638;50.860;4.698;2022-07-05T04:18:01;16.10;99.90
8850;DHT22;5638;50.860;4.698;2022-07-05T04:20:27;16.10;99.90
8850;DHT22;5638;50.860;4.698;2022-07-05T04:22:54;16.10;99.90
8850;DHT22;5638;50.860;4.698;2022-07-05T04:25:21;16.10;99.90
8850;DHT22;5638;50.860;4.698;2022-07-05T04:27:51;16.00;99.90
8850;DHT22;5638;50.860;4.698;2022-07-05T04:30:21;16.00;99.90
8850;DHT22;5638;50.860;4.698;2022-07-05T04:32:49;16.20;99.90
8850;DHT22;5638;50.860;4.698;2022-07-05T04:35:15;16.30;99.90
8850;DHT22;5638;50.860;4.698;2022-07-05T04:37:42;16.20;99.90
8850;DHT22;5638;50.860;4.698;2022-07-05T04:40:11;16.30;99.90
8850;DHT22;5638;50.860;4.698;2022-07-05T04:42:38;16.30;99.90
8850;DHT22;5638;50.860;4.698;2022-07-05T04:45:05;16.40;99.90
8850;DHT22;5638;50.860;4.698;2022-07-05T04:47:31;16.40;99.90
8850;DHT22;5638;50.860;4.698;2022-07-05T04:49:57;16.50;99.90
8850;DHT22;5638;50.860;4.698;2022-07-05T04:52:24;16.50;99.90
8850;DHT22;5638;50.860;4.698;2022-07-05T04:54:50;16.50;99.90
8850;DHT22;5638;50.860;4.698;2022-07-05T04:57:17;16.50;99.90
8850;DHT22;5638;50.860;4.698;2022-07-05T04:59:43;16.50;99.90
8850;DHT22;5638;50.860;4.698;2022-07-05T05:02:08;16.50;99.90
8850;DHT22;5638;50.860;4.698;2022-07-05T05:04:34;16.70;99.90
8850;DHT22;5638;50.860;4.698;2022-07-05T05:07:00;16.60;99.90
8850;DHT22;5638;50.860;4.698;2022-07-05T05:09:26;16.60;99.90
8850;DHT22;5638;50.860;4.698;2022-07-05T05:11:52;16.50;99.90
8850;DHT22;5638;50.860;4.698;2022-07-05T05:14:17;16.60;99.90
8850;DHT22;5638;50.860;4.698;2022-07-05T05:16:43;16.70;99.90
8850;DHT22;5638;50.860;4.698;2022-07-05T05:19:09;16.80;99.90
8850;DHT22;5638;50.860;4.698;2022-07-05T05:21:35;16.80;99.90
8850;DHT22;5638;50.860;4.698;2022-07-05T05:24:01;16.90;99.90
8850;DHT22;5638;50.860;4.698;2022-07-05T05:26:27;16.90;99.90
8850;DHT22;5638;50.860;4.698;2022-07-05T05:28:53;17.00;99.90
8850;DHT22;5638;50.860;4.698;2022-07-05T05:31:19;17.00;99.90
8850;DHT22;5638;50.860;4.698;2022-07-05T05:33:45;17.10;99.90
8850;DHT22;5638;50.860;4.698;2022-07-05T05:36:12;17.10;99.90
8850;DHT22;5638;50.860;4.698;2022-07-05T05:38:38;17.20;99.90
8850;DHT22;5638;50.860;4.698;2022-07-05T05:41:04;17.30;99.90
8850;DHT22;5638;50.860;4.698;2022-07-05T05:43:30;17.40;99.90
8850;DHT22;5638;50.860;4.698;2022-07-05T05:45:56;17.50;99.90
8850;DHT22;5638;50.860;4.698;2022-07-05T05:48:22;17.60;99.90
8850;DHT22;5638;50.860;4.698;2022-07-05T05:50:48;17.80;99.90
8850;DHT22;5638;50.860;4.698;2022-07-05T05:53:15;17.80;99.90
8850;DHT22;5638;50.860;4.698;2022-07-05T05:55:41;17.90;99.90
8850;DHT22;5638;50.860;4.698;2022-07-05T05:58:16;17.90;99.90
8850;DHT22;5638;50.860;4.698;2022-07-05T06:00:47;18.00;99.90
8850;DHT22;5638;50.860;4.698;2022-07-05T06:03:14;18.00;99.90
8850;DHT22;5638;50.860;4.698;2022-07-05T06:05:41;18.10;99.90
8850;DHT22;5638;50.860;4.698;2022-07-05T06:08:07;18.30;99.90
8850;DHT22;5638;50.860;4.698;2022-07-05T06:10:34;18.30;99.90
8850;DHT22;5638;50.860;4.698;2022-07-05T06:13:04;18.30;99.90
8850;DHT22;5638;50.860;4.698;2022-07-05T06:15:32;18.30;99.90
8850;DHT22;5638;50.860;4.698;2022-07-05T06:17:59;18.30;99.90
8850;DHT22;5638;50.860;4.698;2022-07-05T06:20:29;18.40;99.90
8850;DHT22;5638;50.860;4.698;2022-07-05T06:23:00;18.50;99.90
8850;DHT22;5638;50.860;4.698;2022-07-05T06:25:28;18.60;99.90
8850;DHT22;5638;50.860;4.698;2022-07-05T06:27:57;18.70;99.90
8850;DHT22;5638;50.860;4.698;2022-07-05T06:30:27;18.80;99.90
8850;DHT22;5638;50.860;4.698;2022-07-05T06:32:54;18.80;99.90
8850;DHT22;5638;50.860;4.698;2022-07-05T06:35:21;18.90;99.90
8850;DHT22;5638;50.860;4.698;2022-07-05T06:37:58;19.00;99.90
8850;DHT22;5638;50.860;4.698;2022-07-05T06:40:28;19.10;99.90
8850;DHT22;5638;50.860;4.698;2022-07-05T06:42:57;19.30;99.90
8850;DHT22;5638;50.860;4.698;2022-07-05T06:45:24;19.40;99.90
8850;DHT22;5638;50.860;4.698;2022-07-05T06:50:29;19.60;99.90
8850;DHT22;5638;50.860;4.698;2022-07-05T06:52:57;19.60;99.90
8850;DHT22;5638;50.860;4.698;2022-07-05T06:55:24;19.60;99.90
8850;DHT22;5638;50.860;4.698;2022-07-05T06:57:58;19.60;99.90
8850;DHT22;5638;50.860;4.698;2022-07-05T07:00:31;19.70;99.90
8850;DHT22;5638;50.860;4.698;2022-07-05T07:02:58;19.80;99.90
8850;DHT22;5638;50.860;4.698;2022-07-05T07:05:25;19.90;99.90
8850;DHT22;5638;50.860;4.698;2022-07-05T07:07:51;19.80;99.90
8850;DHT22;5638;50.860;4.698;2022-07-05T07:10:36;19.90;99.90
8850;DHT22;5638;50.860;4.698;2022-07-05T07:13:02;20.00;99.90
8850;DHT22;5638;50.860;4.698;2022-07-05T07:15:29;20.20;99.90
8850;DHT22;5638;50.860;4.698;2022-07-05T07:17:55;20.30;99.90
8850;DHT22;5638;50.860;4.698;2022-07-05T07:20:22;20.30;99.90
8850;DHT22;5638;50.860;4.698;2022-07-05T07:22:48;20.30;99.90
8850;DHT22;5638;50.860;4.698;2022-07-05T07:25:14;20.30;99.90
8850;DHT22;5638;50.860;4.698;2022-07-05T07:27:51;20.30;99.90
8850;DHT22;5638;50.860;4.698;2022-07-05T07:30:23;20.30;99.90
8850;DHT22;5638;50.860;4.698;2022-07-05T07:32:51;20.40;99.90
8850;DHT22;5638;50.860;4.698;2022-07-05T07:35:18;20.40;99.90
8850;DHT22;5638;50.860;4.698;2022-07-05T07:37:44;20.40;99.90
8850;DHT22;5638;50.860;4.698;2022-07-05T07:40:10;20.50;99.90
8850;DHT22;5638;50.860;4.698;2022-07-05T07:42:36;20.50;99.90
8850;DHT22;5638;50.860;4.698;2022-07-05T07:45:03;20.40;99.90
8850;DHT22;5638;50.860;4.698;2022-07-05T07:47:33;20.40;99.90
8850;DHT22;5638;50.860;4.698;2022-07-05T07:50:01;20.40;99.90
8850;DHT22;5638;50.860;4.698;2022-07-05T07:52:28;20.50;99.90
8850;DHT22;5638;50.860;4.698;2022-07-05T07:54:56;20.50;99.90
8850;DHT22;5638;50.860;4.698;2022-07-05T07:57:22;20.60;99.90
8850;DHT22;5638;50.860;4.698;2022-07-05T07:59:48;20.70;99.90
8850;DHT22;5638;50.860;4.698;2022-07-05T08:02:14;20.70;99.90
8850;DHT22;5638;50.860;4.698;2022-07-05T08:04:40;20.70;99.90
8850;DHT22;5638;50.860;4.698;2022-07-05T08:07:06;20.70;99.90
8850;DHT22;5638;50.860;4.698;2022-07-05T08:09:31;20.80;99.90
8850;DHT22;5638;50.860;4.698;2022-07-05T08:11:57;20.90;99.90
8850;DHT22;5638;50.860;4.698;2022-07-05T08:14:23;20.90;99.90
8850;DHT22;5638;50.860;4.698;2022-07-05T08:16:50;20.90;99.90
8850;DHT22;5638;50.860;4.698;2022-07-05T08:19:16;20.90;99.90
8850;DHT22;5638;50.860;4.698;2022-07-05T08:22:03;21.00;99.90
8850;DHT22;5638;50.860;4.698;2022-07-05T08:24:29;21.20;99.90
8850;DHT22;5638;50.860;4.698;2022-07-05T08:26:54;21.30;99.90
8850;DHT22;5638;50.860;4.698;2022-07-05T08:29:20;21.20;99.90
8850;DHT22;5638;50.860;4.698;2022-07-05T08:31:48;21.30;99.90
8850;DHT22;5638;50.860;4.698;2022-07-05T08:34:15;21.40;99.90
8850;DHT22;5638;50.860;4.698;2022-07-05T08:36:43;21.40;99.90
8850;DHT22;5638;50.860;4.698;2022-07-05T08:39:10;21.50;99.90
8850;DHT22;5638;50.860;4.698;2022-07-05T08:41:38;21.40;99.90
8850;DHT22;5638;50.860;4.698;2022-07-05T08:44:06;21.40;99.90
8850;DHT22;5638;50.860;4.698;2022-07-05T08:46:36;21.50;99.90
8850;DHT22;5638;50.860;4.698;2022-07-05T08:49:04;21.60;99.90
8850;DHT22;5638;50.860;4.698;2022-07-05T08:51:33;21.70;99.90
8850;DHT22;5638;50.860;4.698;2022-07-05T08:54:04;21.90;99.90
8850;DHT22;5638;50.860;4.698;2022-07-05T08:56:30;21.90;99.90
8850;DHT22;5638;50.860;4.698;2022-07-05T08:58:58;21.90;99.90
8850;DHT22;5638;50.860;4.698;2022-07-05T09:01:25;21.80;99.90
8850;DHT22;5638;50.860;4.698;2022-07-05T09:03:52;21.80;99.90
8850;DHT22;5638;50.860;4.698;2022-07-05T09:06:20;21.90;99.90
8850;DHT22;5638;50.860;4.698;2022-07-05T09:08:50;21.90;99.90
8850;DHT22;5638;50.860;4.698;2022-07-05T09:11:18;22.00;99.90
8850;DHT22;5638;50.860;4.698;2022-07-05T09:13:50;22.10;99.90
8850;DHT22;5638;50.860;4.698;2022-07-05T09:16:17;22.10;99.90
8850;DHT22;5638;50.860;4.698;2022-07-05T09:18:52;22.30;99.90
8850;DHT22;5638;50.860;4.698;2022-07-05T09:21:26;22.40;99.90
8850;DHT22;5638;50.860;4.698;2022-07-05T09:23:58;22.50;99.90
8850;DHT22;5638;50.860;4.698;2022-07-05T09:26:39;22.50;99.90
8850;DHT22;5638;50.860;4.698;2022-07-05T09:29:11;22.70;99.90
8850;DHT22;5638;50.860;4.698;2022-07-05T09:31:42;22.70;99.90
8850;DHT22;5638;50.860;4.698;2022-07-05T09:34:17;22.60;99.90
8850;DHT22;5638;50.860;4.698;2022-07-05T09:37:01;22.70;99.90
8850;DHT22;5638;50.860;4.698;2022-07-05T09:39:35;22.70;99.90
8850;DHT22;5638;50.860;4.698;2022-07-05T09:42:17;22.80;99.90
8850;DHT22;5638;50.860;4.698;2022-07-05T09:44:50;22.80;99.90
8850;DHT22;5638;50.860;4.698;2022-07-05T09:47:31;22.90;99.90
8850;DHT22;5638;50.860;4.698;2022-07-05T09:49:59;22.90;99.90
8850;DHT22;5638;50.860;4.698;2022-07-05T09:52:42;22.90;99.90
8850;DHT22;5638;50.860;4.698;2022-07-05T09:55:10;23.00;99.90
8850;DHT22;5638;50.860;4.698;2022-07-05T09:57:38;22.90;99.90
8850;DHT22;5638;50.860;4.698;2022-07-05T10:00:16;23.00;99.90
8850;DHT22;5638;50.860;4.698;2022-07-05T10:02:44;23.10;99.90
8850;DHT22;5638;50.860;4.698;2022-07-05T10:05:20;23.20;99.90
8850;DHT22;5638;50.860;4.698;2022-07-05T10:07:52;23.00;99.90
8850;DHT22;5638;50.860;4.698;2022-07-05T10:10:30;22.90;99.90
8850;DHT22;5638;50.860;4.698;2022-07-05T10:13:00;23.10;99.90
8850;DHT22;5638;50.860;4.698;2022-07-05T10:15:30;23.10;99.90
8850;DHT22;5638;50.860;4.698;2022-07-05T10:23:08;23.20;99.90
8850;DHT22;5638;50.860;4.698;2022-07-05T10:25:42;23.40;99.90
8850;DHT22;5638;50.860;4.698;2022-07-05T10:28:14;23.40;99.90
8850;DHT22;5638;50.860;4.698;2022-07-05T10:30:41;23.30;99.90
8850;DHT22;5638;50.860;4.698;2022-07-05T10:33:11;23.30;99.90
8850;DHT22;5638;50.860;4.698;2022-07-05T10:35:45;23.50;99.90
8850;DHT22;5638;50.860;4.698;2022-07-05T10:38:12;23.60;99.90
8850;DHT22;5638;50.860;4.698;2022-07-05T10:40:40;23.70;99.90
8850;DHT22;5638;50.860;4.698;2022-07-05T10:43:13;23.80;99.90
8850;DHT22;5638;50.860;4.698;2022-07-05T10:45:47;23.80;99.90
8850;DHT22;5638;50.860;4.698;2022-07-05T10:56:12;23.80;99.90
8850;DHT22;5638;50.860;4.698;2022-07-05T10:58:45;23.90;99.90
8850;DHT22;5638;50.860;4.698;2022-07-05T11:03:42;24.40;99.90
8850;DHT22;5638;50.860;4.698;2022-07-05T11:06:21;24.50;99.90
8850;DHT22;5638;50.860;4.698;2022-07-05T11:11:36;24.30;99.90
8850;DHT22;5638;50.860;4.698;2022-07-05T11:16:45;24.60;99.90
8850;DHT22;5638;50.860;4.698;2022-07-05T11:19:13;24.50;99.90
8850;DHT22;5638;50.860;4.698;2022-07-05T11:22:01;24.60;99.90
8850;DHT22;5638;50.860;4.698;2022-07-05T11:24:33;24.80;99.90
8850;DHT22;5638;50.860;4.698;2022-07-05T11:27:04;24.60;99.60
8850;DHT22;5638;50.860;4.698;2022-07-05T11:29:48;24.50;99.60
8850;DHT22;5638;50.860;4.698;2022-07-05T11:32:23;24.40;99.90
8850;DHT22;5638;50.860;4.698;2022-07-05T11:35:17;24.30;99.90
8850;DHT22;5638;50.860;4.698;2022-07-05T11:38:05;24.20;99.90
8850;DHT22;5638;50.860;4.698;2022-07-05T11:40:38;24.40;99.90
8850;DHT22;5638;50.860;4.698;2022-07-05T11:43:04;24.60;99.90
8850;DHT22;5638;50.860;4.698;2022-07-05T11:45:33;24.70;99.70
8850;DHT22;5638;50.860;4.698;2022-07-05T11:48:01;24.60;99.60
8850;DHT22;5638;50.860;4.698;2022-07-05T11:50:33;24.60;99.40
8850;DHT22;5638;50.860;4.698;2022-07-05T11:53:03;24.40;99.70
8850;DHT22;5638;50.860;4.698;2022-07-05T11:55:29;24.40;99.80
8850;DHT22;5638;50.860;4.698;2022-07-05T11:57:57;24.40;99.30
8850;DHT22;5638;50.860;4.698;2022-07-05T12:00:28;24.30;99.90
8850;DHT22;5638;50.860;4.698;2022-07-05T12:02:56;24.60;99.70
8850;DHT22;5638;50.860;4.698;2022-07-05T12:05:22;24.80;98.80
8850;DHT22;5638;50.860;4.698;2022-07-05T12:07:50;25.00;98.80
8850;DHT22;5638;50.860;4.698;2022-07-05T12:10:18;25.10;98.10
8850;DHT22;5638;50.860;4.698;2022-07-05T12:13:05;25.30;98.10
8850;DHT22;5638;50.860;4.698;2022-07-05T12:15:35;25.60;98.30
8850;DHT22;5638;50.860;4.698;2022-07-05T12:18:03;25.70;98.30
8850;DHT22;5638;50.860;4.698;2022-07-05T12:20:37;25.90;97.90
8850;DHT22;5638;50.860;4.698;2022-07-05T12:23:05;26.00;97.20
8850;DHT22;5638;50.860;4.698;2022-07-05T12:25:32;26.30;97.00
8850;DHT22;5638;50.860;4.698;2022-07-05T12:28:01;26.20;95.70
8850;DHT22;5638;50.860;4.698;2022-07-05T12:30:31;26.00;96.50
8850;DHT22;5638;50.860;4.698;2022-07-05T12:33:04;25.70;96.60
8850;DHT22;5638;50.860;4.698;2022-07-05T12:35:45;25.60;96.60
8850;DHT22;5638;50.860;4.698;2022-07-05T12:38:14;25.60;96.70
8850;DHT22;5638;50.860;4.698;2022-07-05T12:40:48;25.40;96.80
8850;DHT22;5638;50.860;4.698;2022-07-05T12:43:22;25.50;97.00
8850;DHT22;5638;50.860;4.698;2022-07-05T12:46:07;25.70;97.60
8850;DHT22;5638;50.860;4.698;2022-07-05T12:48:35;25.70;96.80
8850;DHT22;5638;50.860;4.698;2022-07-05T12:51:03;25.70;96.30
8850;DHT22;5638;50.860;4.698;2022-07-05T12:53:30;25.60;96.40
8850;DHT22;5638;50.860;4.698;2022-07-05T12:56:15;25.40;96.70
8850;DHT22;5638;50.860;4.698;2022-07-05T12:59:01;25.30;97.00
8850;DHT22;5638;50.860;4.698;2022-07-05T13:01:38;25.10;97.70
8850;DHT22;5638;50.860;4.698;2022-07-05T13:04:11;24.90;97.60
8850;DHT22;5638;50.860;4.698;2022-07-05T13:12:15;24.50;98.70
8850;DHT22;5638;50.860;4.698;2022-07-05T13:14:54;24.50;99.40
8850;DHT22;5638;50.860;4.698;2022-07-05T13:17:22;24.80;99.60
8850;DHT22;5638;50.860;4.698;2022-07-05T13:19:51;25.00;99.00
8850;DHT22;5638;50.860;4.698;2022-07-05T13:22:18;24.80;98.90
8850;DHT22;5638;50.860;4.698;2022-07-05T13:24:44;24.80;99.20
8850;DHT22;5638;50.860;4.698;2022-07-05T13:27:11;24.80;99.20
8850;DHT22;5638;50.860;4.698;2022-07-05T13:29:39;25.00;99.10
8850;DHT22;5638;50.860;4.698;2022-07-05T13:32:05;25.10;99.20
8850;DHT22;5638;50.860;4.698;2022-07-05T13:34:31;25.20;99.10
8850;DHT22;5638;50.860;4.698;2022-07-05T13:36:58;25.40;99.00
8850;DHT22;5638;50.860;4.698;2022-07-05T13:39:25;25.30;98.70
8850;DHT22;5638;50.860;4.698;2022-07-05T13:41:52;25.30;98.70
8850;DHT22;5638;50.860;4.698;2022-07-05T13:44:20;25.30;98.60
8850;DHT22;5638;50.860;4.698;2022-07-05T13:46:47;25.40;98.50
8850;DHT22;5638;50.860;4.698;2022-07-05T13:49:14;25.40;98.70
8850;DHT22;5638;50.860;4.698;2022-07-05T13:51:40;25.50;98.70
8850;DHT22;5638;50.860;4.698;2022-07-05T13:54:06;25.70;98.90
8850;DHT22;5638;50.860;4.698;2022-07-05T13:56:33;25.90;98.50
8850;DHT22;5638;50.860;4.698;2022-07-05T13:59:01;25.90;97.90
8850;DHT22;5638;50.860;4.698;2022-07-05T14:01:27;26.10;98.00
8850;DHT22;5638;50.860;4.698;2022-07-05T14:03:58;26.20;97.70
8850;DHT22;5638;50.860;4.698;2022-07-05T14:06:27;26.10;97.20
8850;DHT22;5638;50.860;4.698;2022-07-05T14:08:54;26.00;97.70
8850;DHT22;5638;50.860;4.698;2022-07-05T14:11:21;26.20;97.00
8850;DHT22;5638;50.860;4.698;2022-07-05T14:13:47;26.20;96.40
8850;DHT22;5638;50.860;4.698;2022-07-05T14:16:13;26.20;96.50
8850;DHT22;5638;50.860;4.698;2022-07-05T14:18:39;26.50;96.50
8850;DHT22;5638;50.860;4.698;2022-07-05T14:21:05;26.40;96.60
8850;DHT22;5638;50.860;4.698;2022-07-05T14:23:31;26.60;96.70
8850;DHT22;5638;50.860;4.698;2022-07-05T14:26:00;26.30;96.60
8850;DHT22;5638;50.860;4.698;2022-07-05T14:28:27;26.30;96.10
8850;DHT22;5638;50.860;4.698;2022-07-05T14:30:53;26.20;96.00
8850;DHT22;5638;50.860;4.698;2022-07-05T14:33:19;26.30;96.00
8850;DHT22;5638;50.860;4.698;2022-07-05T14:35:45;26.50;96.20
8850;DHT22;5638;50.860;4.698;2022-07-05T14:38:11;26.50;95.90
8850;DHT22;5638;50.860;4.698;2022-07-05T14:40:37;26.60;95.70
8850;DHT22;5638;50.860;4.698;2022-07-05T14:43:03;26.50;95.40
8850;DHT22;5638;50.860;4.698;2022-07-05T14:45:29;26.60;95.70
8850;DHT22;5638;50.860;4.698;2022-07-05T14:47:56;26.50;95.40
8850;DHT22;5638;50.860;4.698;2022-07-05T14:50:22;26.50;94.50
8850;DHT22;5638;50.860;4.698;2022-07-05T14:52:48;26.40;95.00
8850;DHT22;5638;50.860;4.698;2022-07-05T14:55:16;26.60;94.70
8850;DHT22;5638;50.860;4.698;2022-07-05T14:57:42;26.60;95.00
8850;DHT22;5638;50.860;4.698;2022-07-05T15:00:11;26.40;94.20
8850;DHT22;5638;50.860;4.698;2022-07-05T15:02:38;26.00;94.60
8850;DHT22;5638;50.860;4.698;2022-07-05T15:05:06;25.80;95.40
8850;DHT22;5638;50.860;4.698;2022-07-05T15:07:33;25.70;95.80
8850;DHT22;5638;50.860;4.698;2022-07-05T15:09:59;25.20;95.70
8850;DHT22;5638;50.860;4.698;2022-07-05T15:12:25;24.90;96.60
8850;DHT22;5638;50.860;4.698;2022-07-05T15:14:51;24.80;96.70
8850;DHT22;5638;50.860;4.698;2022-07-05T15:17:17;24.50;97.20
8850;DHT22;5638;50.860;4.698;2022-07-05T15:19:44;24.50;97.20
8850;DHT22;5638;50.860;4.698;2022-07-05T15:22:10;24.30;97.50
8850;DHT22;5638;50.860;4.698;2022-07-05T15:24:36;24.40;97.90
8850;DHT22;5638;50.860;4.698;2022-07-05T15:27:02;24.60;97.00
8850;DHT22;5638;50.860;4.698;2022-07-05T15:29:28;24.70;97.10
8850;DHT22;5638;50.860;4.698;2022-07-05T15:31:56;24.60;96.70
8850;DHT22;5638;50.860;4.698;2022-07-05T15:34:22;24.50;97.30
8850;DHT22;5638;50.860;4.698;2022-07-05T15:36:48;24.60;97.10
8850;DHT22;5638;50.860;4.698;2022-07-05T15:39:14;24.70;96.60
8850;DHT22;5638;50.860;4.698;2022-07-05T15:41:41;24.90;96.50
8850;DHT22;5638;50.860;4.698;2022-07-05T15:44:07;24.90;95.80
8850;DHT22;5638;50.860;4.698;2022-07-05T15:46:33;24.70;96.20
8850;DHT22;5638;50.860;4.698;2022-07-05T15:49:18;24.60;96.70
8850;DHT22;5638;50.860;4.698;2022-07-05T15:51:44;24.70;96.60
8850;DHT22;5638;50.860;4.698;2022-07-05T15:54:10;24.80;96.60
8850;DHT22;5638;50.860;4.698;2022-07-05T15:56:36;24.80;96.60
8850;DHT22;5638;50.860;4.698;2022-07-05T15:59:03;24.50;96.40
8850;DHT22;5638;50.860;4.698;2022-07-05T16:01:29;24.30;96.90
8850;DHT22;5638;50.860;4.698;2022-07-05T16:03:55;24.30;97.30
8850;DHT22;5638;50.860;4.698;2022-07-05T16:06:21;24.40;96.90
8850;DHT22;5638;50.860;4.698;2022-07-05T16:08:47;24.40;96.30
8850;DHT22;5638;50.860;4.698;2022-07-05T16:11:12;24.30;97.20
8850;DHT22;5638;50.860;4.698;2022-07-05T16:13:38;24.60;97.40
8850;DHT22;5638;50.860;4.698;2022-07-05T16:16:04;24.70;96.80
8850;DHT22;5638;50.860;4.698;2022-07-05T16:18:37;24.80;96.30
8850;DHT22;5638;50.860;4.698;2022-07-05T16:21:08;24.60;95.80
8850;DHT22;5638;50.860;4.698;2022-07-05T16:23:37;24.30;95.60
8850;DHT22;5638;50.860;4.698;2022-07-05T16:26:04;24.20;96.40
8850;DHT22;5638;50.860;4.698;2022-07-05T16:28:31;24.20;95.90
8850;DHT22;5638;50.860;4.698;2022-07-05T16:31:09;24.20;96.60
8850;DHT22;5638;50.860;4.698;2022-07-05T16:33:41;24.40;96.10
8850;DHT22;5638;50.860;4.698;2022-07-05T16:36:16;24.50;95.70
8850;DHT22;5638;50.860;4.698;2022-07-05T16:38:44;24.30;95.50